Flight Track Log - Related Links

Times and Time Zones

All times are in EDT time to prevent confusion due to time zone crossing. See the AWE1940 flight status page for this flight to view local times or setup timezone preferences in your user account.

Time Position Orientation Groundspeed Altitude Reporting Facility
EDT Latitude Longitude Course Direction KTS MPH feet Rate Location/Type
Mon 06:36:30 PM 29.9767 -95.3008 41° Northeast 171 197 900  Level Houston Center
Mon 06:38:08 PM 30.0547 -95.2500 29° Northeast 227 261 3,800 1,870 Climbing Houston Center
Mon 06:39:00 PM 30.2545 -95.1082 30° Northeast  Level FlightAware Approximate
Mon 06:39:04 PM 30.1219 -95.2131 25° Northeast 283 326 5,700  Level Houston Center
Mon 06:40:00 PM 30.3495 -95.0404 35° Northeast  Level FlightAware Approximate
Mon 06:40:11 PM 30.1886 -95.1672 31° Northeast 280 322 8,400  Level Houston Center
Mon 06:41:00 PM 30.4381 -94.9619 41° Northeast  Level FlightAware Approximate
Mon 06:41:13 PM 30.2533 -95.1175 34° Northeast 280 322 10,700  Level Houston Center
Mon 06:42:15 PM 30.3336 -95.0589 32° Northeast 335 386 12,100 2,226 Climbing Houston Center
Mon 06:43:17 PM 30.4411 -94.9764 33° Northeast 373 429 15,300 2,806 Climbing Houston Center
Mon 06:44:19 PM 30.5311 -94.9089 33° Northeast 383 441 17,900 2,177 Climbing Houston Center
Mon 06:45:21 PM 30.6236 -94.8361 34° Northeast 406 467 19,800 1,645 Climbing Houston Center
Mon 06:46:23 PM 30.7214 -94.7619 33° Northeast 418 481 21,300 1,645 Climbing Houston Center
Mon 06:47:25 PM 30.8222 -94.6847 33° Northeast 434 499 23,200 1,742 Climbing Houston Center
Mon 06:48:27 PM 30.9250 -94.6047 34° Northeast 448 516 24,900 1,694 Climbing Houston Center
Mon 06:49:29 PM 31.0519 -94.5058 34° Northeast 460 529 26,700 1,606 Climbing Houston Center
Mon 06:50:34 PM 31.1592 -94.4228 34° Northeast 466 536 28,300 1,920 Climbing Fort Worth Center
Mon 06:51:34 PM 31.2719 -94.3342 34° Northeast 477 549 30,700 1,400 Climbing Fort Worth Center
Mon 06:52:34 PM 31.3803 -94.2500 34° Northeast 477 549 31,100 200 Climbing Fort Worth Center
Mon 06:53:34 PM 31.4847 -94.1686 34° Northeast 467 537 31,100  Level Fort Worth Center
Mon 06:55:52 PM 31.6019 -93.8389 67° East 474 545 31,100  Level Houston Center
Mon 06:56:54 PM 31.6400 -93.6911 73° East 473 544 31,100  Level Houston Center
Mon 06:57:56 PM 31.6781 -93.5467 73° East 472 543 31,100  Level Houston Center
Mon 06:58:58 PM 31.7156 -93.4006 73° East 469 540 31,100 -48 Level Houston Center
Mon 07:00:00 PM 31.7581 -93.2311 74° East 467 537 31,000 -48 Descending Houston Center
Mon 07:01:02 PM 31.7939 -93.0856 74° East 465 535 31,000  Level Houston Center
Mon 07:02:04 PM 31.8303 -92.9433 73° East 458 527 31,000  Level Houston Center
Mon 07:03:06 PM 31.8647 -92.8011 74° East 454 522 31,000  Level Houston Center
Mon 07:04:08 PM 31.9006 -92.6625 73° East 446 513 31,000  Level Houston Center
Mon 07:05:10 PM 31.9356 -92.5231 73° East 445 512 31,000  Level Houston Center
Mon 07:06:11 PM 31.9689 -92.3839 74° East 442 509 31,000  Level Houston Center
Mon 07:07:13 PM 32.0103 -92.2169 74° East 442 509 31,000  Level Houston Center
Mon 07:08:15 PM 32.0431 -92.0786 74° East 440 506 31,000 48 Level Houston Center
Mon 07:09:17 PM 32.0786 -91.9289 74° East 439 505 31,100 48 Climbing Houston Center
Mon 07:10:19 PM 32.1114 -91.7919 74° East 435 501 31,100  Level Houston Center
Mon 07:11:21 PM 32.1439 -91.6553 74° East 434 499 31,100  Level Houston Center
Mon 07:12:23 PM 32.1758 -91.5164 75° East 438 504 31,100  Level Houston Center
Mon 07:13:25 PM 32.2100 -91.3786 74° East 439 505 31,100  Level Houston Center
Mon 07:14:08 PM 32.2344 -91.2758 74° East 431 496 31,100  Level Memphis Center
Mon 07:15:08 PM 32.2667 -91.1361 75° East 431 496 31,100  Level Memphis Center
Mon 07:16:08 PM 32.2986 -90.9964 75° East 431 496 31,100  Level Memphis Center
Mon 07:17:08 PM 32.3306 -90.8539 75° East 431 496 31,100  Level Memphis Center
Mon 07:18:08 PM 32.3625 -90.7114 75° East 431 496 31,100  Level Memphis Center
Mon 07:19:08 PM 32.3942 -90.5714 75° East 436 502 31,100  Level Memphis Center
Mon 07:20:08 PM 32.4278 -90.4286 74° East 436 502 31,100  Level Memphis Center
Mon 07:21:08 PM 32.4589 -90.2858 75° East 436 502 31,100  Level Memphis Center
Mon 07:22:08 PM 32.4922 -90.1456 74° East 436 502 31,100  Level Memphis Center
Mon 07:23:08 PM 32.5231 -90.0025 76° East 436 502 31,100  Level Memphis Center
Mon 07:24:08 PM 32.5603 -89.8447 74° East 436 502 31,100  Level Memphis Center
Mon 07:25:08 PM 32.5908 -89.6989 76° East 442 509 31,100  Level Memphis Center
Mon 07:26:08 PM 32.6214 -89.5531 76° East 442 509 31,100  Level Memphis Center
Mon 07:27:08 PM 32.6558 -89.4122 74° East 447 514 31,100  Level Memphis Center
Mon 07:28:08 PM 32.6858 -89.2664 76° East 447 514 31,100  Level Memphis Center
Mon 07:29:08 PM 32.7181 -89.1228 75° East 452 520 31,100  Level Memphis Center
Mon 07:30:08 PM 32.7497 -88.9764 76° East 452 520 31,100  Level Memphis Center
Mon 07:31:08 PM 32.7814 -88.8278 76° East 452 520 31,100  Level Memphis Center
Mon 07:32:08 PM 32.8131 -88.6814 76° East 452 520 31,100  Level Memphis Center
Mon 07:33:08 PM 32.8425 -88.5472 75° East 457 526 31,100  Level Memphis Center
Mon 07:35:08 PM 32.8997 -88.2569 77° East 455 524 31,100  Level Atlanta Center
Mon 07:36:08 PM 32.9278 -88.1072 77° East 455 524 31,100  Level Atlanta Center
Mon 07:37:08 PM 32.9617 -87.9628 74° East 455 524 31,100  Level Atlanta Center
Mon 07:38:08 PM 32.9994 -87.8183 73° East 450 518 31,100  Level Atlanta Center
Mon 07:39:08 PM 33.0556 -87.6869 63° Northeast 450 518 31,100  Level Atlanta Center
Mon 07:40:08 PM 33.1178 -87.5558 60° Northeast 444 511 31,100  Level Atlanta Center
Mon 07:41:08 PM 33.1800 -87.4267 60° Northeast 444 511 31,100  Level Atlanta Center
Mon 07:42:08 PM 33.2294 -87.2894 67° East 444 511 31,100  Level Atlanta Center
Mon 07:43:08 PM 33.2481 -87.1386 82° East 444 511 31,100  Level Atlanta Center
Mon 07:44:08 PM 33.2747 -86.9881 78° East 455 524 31,100  Level Atlanta Center
Mon 07:45:08 PM 33.2975 -86.8197 81° East 455 524 31,100  Level Atlanta Center
Mon 07:46:08 PM 33.3175 -86.6714 81° East 460 529 31,100  Level Atlanta Center
Mon 07:47:08 PM 33.3392 -86.5203 80° East 460 529 31,100  Level Atlanta Center
Mon 07:48:08 PM 33.3653 -86.3719 78° East 465 535 31,100  Level Atlanta Center
Mon 07:49:08 PM 33.3889 -86.2158 80° East 465 535 31,100  Level Atlanta Center
Mon 07:50:08 PM 33.4103 -86.0619 81° East 465 535 31,100  Level Atlanta Center
Mon 07:51:07 PM 33.4314 -85.9083 81° East 470 541 31,100  Level Atlanta Center
Mon 07:52:07 PM 33.4503 -85.7742 80° East 464 534 31,100  Level Atlanta Center
Mon 07:53:08 PM 33.4711 -85.6228 81° East 464 534 31,100  Level Atlanta Center
Mon 07:54:08 PM 33.4917 -85.4686 81° East 464 534 31,100  Level Atlanta Center
Mon 07:55:08 PM 33.5122 -85.3169 81° East 464 534 31,100  Level Atlanta Center
Mon 07:56:08 PM 33.5325 -85.1628 81° East 464 534 31,100  Level Atlanta Center
Mon 07:57:08 PM 33.5525 -85.0108 81° East 458 527 31,100  Level Atlanta Center
Mon 07:58:08 PM 33.5725 -84.8592 81° East 458 527 31,100  Level Atlanta Center
Mon 07:59:08 PM 33.5964 -84.6972 80° East 463 533 31,100  Level Atlanta Center
Mon 08:00:08 PM 33.6158 -84.5353 82° East 469 540 31,100  Level Atlanta Center
Mon 08:01:08 PM 33.6414 -84.3906 78° East 463 533 31,100  Level Atlanta Center
Mon 08:02:08 PM 33.6814 -84.2461 72° East 452 520 31,100  Level Atlanta Center
Mon 08:03:08 PM 33.7192 -84.1136 71° East 458 527 31,100  Level Atlanta Center
Mon 08:04:08 PM 33.7586 -83.9664 72° East 458 527 31,100  Level Atlanta Center
Mon 08:05:08 PM 33.8025 -83.8114 71° East 458 527 31,100  Level Atlanta Center
Mon 08:06:08 PM 33.8439 -83.6661 71° East 458 527 31,100  Level Atlanta Center
Mon 08:07:08 PM 33.8808 -83.5258 72° East 452 520 31,100  Level Atlanta Center
Mon 08:08:08 PM 33.9239 -83.3828 70° East 440 506 31,100  Level Atlanta Center
Mon 08:09:08 PM 33.9794 -83.2547 62° Northeast 435 501 31,100  Level Atlanta Center
Mon 08:10:08 PM 34.0392 -83.1264 61° Northeast 435 501 31,100  Level Atlanta Center
Mon 08:11:08 PM 34.0986 -82.9978 61° Northeast 435 501 31,100  Level Atlanta Center
Mon 08:12:08 PM 34.1581 -82.8639 62° Northeast 440 506 31,100 -800 Level Atlanta Center
Mon 08:13:08 PM 34.2153 -82.7325 62° Northeast 440 506 29,500 -1,850 Descending Atlanta Center
Mon 08:14:08 PM 34.2742 -82.6008 62° Northeast 440 506 27,400 -2,100 Descending Atlanta Center
Mon 08:15:08 PM 34.3311 -82.4692 62° Northeast 440 506 25,300 -1,650 Descending Atlanta Center
Mon 08:16:08 PM 34.3897 -82.3372 62° Northeast 440 506 24,100 -1,550 Descending Atlanta Center
Mon 08:17:08 PM 34.4464 -82.2050 63° Northeast 440 506 22,200 -2,150 Descending Atlanta Center
Mon 08:18:08 PM 34.5008 -82.0778 63° Northeast 440 506 19,800 -2,400 Descending Atlanta Center
Mon 08:19:08 PM 34.5550 -81.9503 63° Northeast 435 501 17,400 -2,400 Descending Atlanta Center
Mon 08:20:08 PM 34.6092 -81.8281 62° Northeast 429 494 15,000 -2,450 Descending Atlanta Center
Mon 08:21:08 PM 34.6611 -81.7106 62° Northeast 400 460 12,500 -2,357 Descending Atlanta Center
Mon 08:21:32 PM 34.6811 -81.6644 62° Northeast 379 436 11,700 -1,500 Descending Atlanta Center
Mon 08:22:08 PM 34.7072 -81.6031 63° Northeast 378 435 11,000 -396 Descending Atlanta Center
Mon 08:23:03 PM 34.7536 -81.5208 56° Northeast 290 334 11,100 -362 Climbing Atlanta Center
Mon 08:24:04 PM 34.7997 -81.4408 55° Northeast 288 331 10,300 -1,056 Descending Atlanta Center
Mon 08:25:08 PM 34.7997 -81.3422 90° East 285 328 8,900 -1,240 Descending Atlanta Center
Mon 08:26:05 PM 34.8058 -81.2433 86° East 289 333 7,800 -915 Descending Atlanta Center
Mon 08:27:06 PM 34.8228 -81.1594 76° East 248 285 7,100 -541 Descending Atlanta Center
Mon 08:28:07 PM 34.8478 -81.0750 70° East 238 274 6,700 -689 Descending Atlanta Center
Mon 08:29:08 PM 34.8692 -81.0108 68° East 239 275 5,700 -793 Descending Atlanta Center
Mon 08:30:08 PM 34.9203 -80.9686 34° Northeast 188 216 5,100 -700 Descending Atlanta Center
Mon 08:31:08 PM 34.9594 -80.9494 22° Northeast 181 208 4,300 -492 Descending Atlanta Center
Mon 08:32:10 PM 35.0117 -80.9525 357° North 164 189 4,100 -390 Descending Atlanta Center
Mon 08:33:11 PM 35.0619 -80.9558 357° North 163 188 3,500 -689 Descending Atlanta Center
Mon 08:34:12 PM 35.1039 -80.9592 356° North 154 177 2,700 -738 Descending Atlanta Center
Mon 08:35:13 PM 35.1414 -80.9631 355° North 133 153 2,000 -689 Descending Atlanta Center
Mon 08:36:14 PM 35.1792 -80.9667 356° North 130 150 1,300 -689 Descending Atlanta Center

Login

Don't have an account? Register now (free) for customized features, flight alerts, and more!